Aviation Digital Data Service (ADDS)

Output produced by METARs form (1358 UTC 22 April 2019)
found at http://www.aviationweather.gov/metar/data/
 
METAR text: LOWG 221350Z 08005KT 360V130 CAVOK 22/05 Q1009 NOSIG
Conditions at: LOWG (GRAZ (MIL/CIV) , AT) observed 1350 UTC 22 April 2019
Temperature: 22.0°C (72°F)
Dewpoint: 5.0°C (41°F) [RH = 33%]
Pressure (altimeter): 29.79 inches Hg (1009.0 mb)
Winds: from the E (80 degrees) at 6 MPH (5 knots; 2.6 m/s)
Visibility: 6 or more miles (10+ km)
Ceiling: ceiling and visibility are OK
Clouds: unknown
Weather: no significant weather observed at this time

METAR text: LOWG 221320Z 10006KT 050V140 9999 R17/P1500D R35/P1500D FEW072 BKN350 22/07 Q1009 NOSIG
Conditions at: LOWG (GRAZ (MIL/CIV) , AT) observed 1320 UTC 22 April 2019
Temperature: 22.0°C (72°F)
Dewpoint: 7.0°C (45°F) [RH = 38%]
Pressure (altimeter): 29.79 inches Hg (1009.0 mb)
Winds: from the E (100 degrees) at 7 MPH (6 knots; 3.1 m/s)
Visibility: 6 or more miles (10+ km)
Ceiling: 35000 feet AGL
Clouds: few clouds at 7200 feet AGL
broken clouds at 35000 feet AGL
Weather: no significant weather observed at this time

METAR text: LOWG 221250Z 08006KT 040V110 9999 FEW060 BKN350 22/07 Q1009 NOSIG
Conditions at: LOWG (GRAZ (MIL/CIV) , AT) observed 1250 UTC 22 April 2019
Temperature: 22.0°C (72°F)
Dewpoint: 7.0°C (45°F) [RH = 38%]
Pressure (altimeter): 29.79 inches Hg (1009.0 mb)
Winds: from the E (80 degrees) at 7 MPH (6 knots; 3.1 m/s)
Visibility: 6 or more miles (10+ km)
Ceiling: 35000 feet AGL
Clouds: few clouds at 6000 feet AGL
broken clouds at 35000 feet AGL
Weather: no significant weather observed at this time

METAR text: LOWG 221220Z VRB03KT 9999 FEW060 BKN350 21/05 Q1010 NOSIG
Conditions at: LOWG (GRAZ (MIL/CIV) , AT) observed 1220 UTC 22 April 2019
Temperature: 21.0°C (70°F)
Dewpoint: 5.0°C (41°F) [RH = 35%]
Pressure (altimeter): 29.82 inches Hg (1010.0 mb)
Winds: variable direction winds at 3 MPH (3 knots; 1.5 m/s)
Visibility: 6 or more miles (10+ km)
Ceiling: 35000 feet AGL
Clouds: few clouds at 6000 feet AGL
broken clouds at 35000 feet AGL
Weather: no significant weather observed at this time

METAR text: LOWG 221150Z 09004KT 030V170 9999 FEW060 BKN350 21/04 Q1010 NOSIG
Conditions at: LOWG (GRAZ (MIL/CIV) , AT) observed 1150 UTC 22 April 2019
Temperature: 21.0°C (70°F)
Dewpoint: 4.0°C (39°F) [RH = 33%]
Pressure (altimeter): 29.82 inches Hg (1010.0 mb)
Winds: from the E (90 degrees) at 5 MPH (4 knots; 2.1 m/s)
Visibility: 6 or more miles (10+ km)
Ceiling: 35000 feet AGL
Clouds: few clouds at 6000 feet AGL
broken clouds at 35000 feet AGL
Weather: no significant weather observed at this time

METAR text: LOWG 221120Z 15008KT 090V190 9999 FEW060 BKN350 21/06 Q1010 NOSIG
Conditions at: LOWG (GRAZ (MIL/CIV) , AT) observed 1120 UTC 22 April 2019
Temperature: 21.0°C (70°F)
Dewpoint: 6.0°C (43°F) [RH = 38%]
Pressure (altimeter): 29.82 inches Hg (1010.0 mb)
Winds: from the SSE (150 degrees) at 9 MPH (8 knots; 4.1 m/s)
Visibility: 6 or more miles (10+ km)
Ceiling: 35000 feet AGL
Clouds: few clouds at 6000 feet AGL
broken clouds at 35000 feet AGL
Weather: no significant weather observed at this time

METAR text: LOWG 221050Z 13004KT 070V180 9999 FEW060 BKN350 20/04 Q1010 NOSIG
Conditions at: LOWG (GRAZ (MIL/CIV) , AT) observed 1050 UTC 22 April 2019
Temperature: 20.0°C (68°F)
Dewpoint: 4.0°C (39°F) [RH = 35%]
Pressure (altimeter): 29.82 inches Hg (1010.0 mb)
Winds: from the SE (130 degrees) at 5 MPH (4 knots; 2.1 m/s)
Visibility: 6 or more miles (10+ km)
Ceiling: 35000 feet AGL
Clouds: few clouds at 6000 feet AGL
broken clouds at 35000 feet AGL
Weather: no significant weather observed at this time

METAR text: LOWG 221020Z 14005KT 090V210 9999 FEW060 BKN350 20/04 Q1011 NOSIG
Conditions at: LOWG (GRAZ (MIL/CIV) , AT) observed 1020 UTC 22 April 2019
Temperature: 20.0°C (68°F)
Dewpoint: 4.0°C (39°F) [RH = 35%]
Pressure (altimeter): 29.85 inches Hg (1011.0 mb)
Winds: from the SE (140 degrees) at 6 MPH (5 knots; 2.6 m/s)
Visibility: 6 or more miles (10+ km)
Ceiling: 35000 feet AGL
Clouds: few clouds at 6000 feet AGL
broken clouds at 35000 feet AGL
Weather: no significant weather observed at this time

METAR text: LOWG 220950Z 09004KT 020V130 9999 FEW060 BKN350 19/03 Q1011 NOSIG
Conditions at: LOWG (GRAZ (MIL/CIV) , AT) observed 0950 UTC 22 April 2019
Temperature: 19.0°C (66°F)
Dewpoint: 3.0°C (37°F) [RH = 34%]
Pressure (altimeter): 29.85 inches Hg (1011.0 mb)
Winds: from the E (90 degrees) at 5 MPH (4 knots; 2.1 m/s)
Visibility: 6 or more miles (10+ km)
Ceiling: 35000 feet AGL
Clouds: few clouds at 6000 feet AGL
broken clouds at 35000 feet AGL
Weather: no significant weather observed at this time

METAR text: LOWG 220920Z VRB02KT CAVOK 19/05 Q1012 NOSIG
Conditions at: LOWG (GRAZ (MIL/CIV) , AT) observed 0920 UTC 22 April 2019
Temperature: 19.0°C (66°F)
Dewpoint: 5.0°C (41°F) [RH = 40%]
Pressure (altimeter): 29.88 inches Hg (1012.0 mb)
Winds: variable direction winds at 2 MPH (2 knots; 1.0 m/s)
Visibility: 6 or more miles (10+ km)
Ceiling: ceiling and visibility are OK
Clouds: unknown
Weather: no significant weather observed at this time

METAR text: LOWG 220850Z 15003KT 100V200 CAVOK 17/04 Q1012 NOSIG
Conditions at: LOWG (GRAZ (MIL/CIV) , AT) observed 0850 UTC 22 April 2019
Temperature: 17.0°C (63°F)
Dewpoint: 4.0°C (39°F) [RH = 42%]
Pressure (altimeter): 29.88 inches Hg (1012.0 mb)
Winds: from the SSE (150 degrees) at 3 MPH (3 knots; 1.5 m/s)
Visibility: 6 or more miles (10+ km)
Ceiling: ceiling and visibility are OK
Clouds: unknown
Weather: no significant weather observed at this time

METAR text: LOWG 220820Z 17004KT 120V210 CAVOK 16/05 Q1012 NOSIG
Conditions at: LOWG (GRAZ (MIL/CIV) , AT) observed 0820 UTC 22 April 2019
Temperature: 16.0°C (61°F)
Dewpoint: 5.0°C (41°F) [RH = 48%]
Pressure (altimeter): 29.88 inches Hg (1012.0 mb)
Winds: from the S (170 degrees) at 5 MPH (4 knots; 2.1 m/s)
Visibility: 6 or more miles (10+ km)
Ceiling: ceiling and visibility are OK
Clouds: unknown
Weather: no significant weather observed at this time

METAR text: LOWG 220750Z VRB02KT CAVOK 14/05 Q1013 NOSIG
Conditions at: LOWG (GRAZ (MIL/CIV) , AT) observed 0750 UTC 22 April 2019
Temperature: 14.0°C (57°F)
Dewpoint: 5.0°C (41°F) [RH = 55%]
Pressure (altimeter): 29.91 inches Hg (1013.0 mb)
Winds: variable direction winds at 2 MPH (2 knots; 1.0 m/s)
Visibility: 6 or more miles (10+ km)
Ceiling: ceiling and visibility are OK
Clouds: unknown
Weather: no significant weather observed at this time

METAR text: LOWG 220720Z VRB01KT CAVOK 13/05 Q1013 NOSIG
Conditions at: LOWG (GRAZ (MIL/CIV) , AT) observed 0720 UTC 22 April 2019
Temperature: 13.0°C (55°F)
Dewpoint: 5.0°C (41°F) [RH = 58%]
Pressure (altimeter): 29.91 inches Hg (1013.0 mb)
Winds: variable direction winds at 1 MPH (1 knots; 0.5 m/s)
Visibility: 6 or more miles (10+ km)
Ceiling: ceiling and visibility are OK
Clouds: unknown
Weather: no significant weather observed at this time

METAR text: LOWG 220650Z VRB02KT CAVOK 12/05 Q1013 NOSIG
Conditions at: LOWG (GRAZ (MIL/CIV) , AT) observed 0650 UTC 22 April 2019
Temperature: 12.0°C (54°F)
Dewpoint: 5.0°C (41°F) [RH = 62%]
Pressure (altimeter): 29.91 inches Hg (1013.0 mb)
Winds: variable direction winds at 2 MPH (2 knots; 1.0 m/s)
Visibility: 6 or more miles (10+ km)
Ceiling: ceiling and visibility are OK
Clouds: unknown
Weather: no significant weather observed at this time

METAR text: LOWG 220620Z 14003KT 110V170 CAVOK 10/05 Q1013 NOSIG
Conditions at: LOWG (GRAZ (MIL/CIV) , AT) observed 0620 UTC 22 April 2019
Temperature: 10.0°C (50°F)
Dewpoint: 5.0°C (41°F) [RH = 71%]
Pressure (altimeter): 29.91 inches Hg (1013.0 mb)
Winds: from the SE (140 degrees) at 3 MPH (3 knots; 1.5 m/s)
Visibility: 6 or more miles (10+ km)
Ceiling: ceiling and visibility are OK
Clouds: unknown
Weather: no significant weather observed at this time

METAR text: LOWG 220550Z VRB01KT CAVOK 09/05 Q1014 NOSIG
Conditions at: LOWG (GRAZ (MIL/CIV) , AT) observed 0550 UTC 22 April 2019
Temperature: 9.0°C (48°F)
Dewpoint: 5.0°C (41°F) [RH = 76%]
Pressure (altimeter): 29.94 inches Hg (1014.0 mb)
Winds: variable direction winds at 1 MPH (1 knots; 0.5 m/s)
Visibility: 6 or more miles (10+ km)
Ceiling: ceiling and visibility are OK
Clouds: unknown
Weather: no significant weather observed at this time

METAR text: LOWG 220520Z 00000KT CAVOK 07/05 Q1014 NOSIG
Conditions at: LOWG (GRAZ (MIL/CIV) , AT) observed 0520 UTC 22 April 2019
Temperature: 7.0°C (45°F)
Dewpoint: 5.0°C (41°F) [RH = 87%]
Pressure (altimeter): 29.94 inches Hg (1014.0 mb)
Winds: calm
Visibility: 6 or more miles (10+ km)
Ceiling: ceiling and visibility are OK
Clouds: unknown
Weather: no significant weather observed at this time

METAR text: LOWG 220450Z VRB01KT CAVOK 05/03 Q1014 NOSIG
Conditions at: LOWG (GRAZ (MIL/CIV) , AT) observed 0450 UTC 22 April 2019
Temperature: 5.0°C (41°F)
Dewpoint: 3.0°C (37°F) [RH = 87%]
Pressure (altimeter): 29.94 inches Hg (1014.0 mb)
Winds: variable direction winds at 1 MPH (1 knots; 0.5 m/s)
Visibility: 6 or more miles (10+ km)
Ceiling: ceiling and visibility are OK
Clouds: unknown
Weather: no significant weather observed at this time

METAR text: LOWG 220420Z VRB01KT CAVOK 05/03 Q1014 NOSIG
Conditions at: LOWG (GRAZ (MIL/CIV) , AT) observed 0420 UTC 22 April 2019
Temperature: 5.0°C (41°F)
Dewpoint: 3.0°C (37°F) [RH = 87%]
Pressure (altimeter): 29.94 inches Hg (1014.0 mb)
Winds: variable direction winds at 1 MPH (1 knots; 0.5 m/s)
Visibility: 6 or more miles (10+ km)
Ceiling: ceiling and visibility are OK
Clouds: unknown
Weather: no significant weather observed at this time

METAR text: LOWG 220350Z 00000KT CAVOK 04/03 Q1014 NOSIG
Conditions at: LOWG (GRAZ (MIL/CIV) , AT) observed 0350 UTC 22 April 2019
Temperature: 4.0°C (39°F)
Dewpoint: 3.0°C (37°F) [RH = 93%]
Pressure (altimeter): 29.94 inches Hg (1014.0 mb)
Winds: calm
Visibility: 6 or more miles (10+ km)
Ceiling: ceiling and visibility are OK
Clouds: unknown
Weather: no significant weather observed at this time

METAR text: LOWG 220320Z AUTO 00000KT 9999 NSC 05/03 Q1014
Conditions at: LOWG (GRAZ (MIL/CIV) , AT) observed 0320 UTC 22 April 2019
Temperature: 5.0°C (41°F)
Dewpoint: 3.0°C (37°F) [RH = 87%]
Pressure (altimeter): 29.94 inches Hg (1014.0 mb)
Winds: calm
Visibility: 6 or more miles (10+ km)
Ceiling: at least 12,000 feet AGL
Clouds: sky clear below 12,000 feet AGL
Weather: no significant weather observed at this time

METAR text: LOWG 220250Z AUTO VRB01KT 9999 NSC 05/03 Q1015
Conditions at: LOWG (GRAZ (MIL/CIV) , AT) observed 0250 UTC 22 April 2019
Temperature: 5.0°C (41°F)
Dewpoint: 3.0°C (37°F) [RH = 87%]
Pressure (altimeter): 29.97 inches Hg (1015.0 mb)
Winds: variable direction winds at 1 MPH (1 knots; 0.5 m/s)
Visibility: 6 or more miles (10+ km)
Ceiling: at least 12,000 feet AGL
Clouds: sky clear below 12,000 feet AGL
Weather: no significant weather observed at this time

METAR text: LOWG 220220Z AUTO VRB01KT 9999 NSC 05/04 Q1015
Conditions at: LOWG (GRAZ (MIL/CIV) , AT) observed 0220 UTC 22 April 2019
Temperature: 5.0°C (41°F)
Dewpoint: 4.0°C (39°F) [RH = 93%]
Pressure (altimeter): 29.97 inches Hg (1015.0 mb)
Winds: variable direction winds at 1 MPH (1 knots; 0.5 m/s)
Visibility: 6 or more miles (10+ km)
Ceiling: at least 12,000 feet AGL
Clouds: sky clear below 12,000 feet AGL
Weather: no significant weather observed at this time

METAR text: LOWG 220150Z AUTO VRB01KT 9999 NSC 06/04 Q1016
Conditions at: LOWG (GRAZ (MIL/CIV) , AT) observed 0150 UTC 22 April 2019
Temperature: 6.0°C (43°F)
Dewpoint: 4.0°C (39°F) [RH = 87%]
Pressure (altimeter): 30.00 inches Hg (1016.0 mb)
Winds: variable direction winds at 1 MPH (1 knots; 0.5 m/s)
Visibility: 6 or more miles (10+ km)
Ceiling: at least 12,000 feet AGL
Clouds: sky clear below 12,000 feet AGL
Weather: no significant weather observed at this time

METAR text: LOWG 220120Z AUTO VRB01KT 9999 NSC 07/04 Q1016
Conditions at: LOWG (GRAZ (MIL/CIV) , AT) observed 0120 UTC 22 April 2019
Temperature: 7.0°C (45°F)
Dewpoint: 4.0°C (39°F) [RH = 81%]
Pressure (altimeter): 30.00 inches Hg (1016.0 mb)
Winds: variable direction winds at 1 MPH (1 knots; 0.5 m/s)
Visibility: 6 or more miles (10+ km)
Ceiling: at least 12,000 feet AGL
Clouds: sky clear below 12,000 feet AGL
Weather: no significant weather observed at this time

METAR text: LOWG 220050Z AUTO VRB01KT 9999 NSC 07/04 Q1016
Conditions at: LOWG (GRAZ (MIL/CIV) , AT) observed 0050 UTC 22 April 2019
Temperature: 7.0°C (45°F)
Dewpoint: 4.0°C (39°F) [RH = 81%]
Pressure (altimeter): 30.00 inches Hg (1016.0 mb)
Winds: variable direction winds at 1 MPH (1 knots; 0.5 m/s)
Visibility: 6 or more miles (10+ km)
Ceiling: at least 12,000 feet AGL
Clouds: sky clear below 12,000 feet AGL
Weather: no significant weather observed at this time

METAR text: LOWG 220020Z AUTO VRB01KT 9999 NSC 07/04 Q1017
Conditions at: LOWG (GRAZ (MIL/CIV) , AT) observed 0020 UTC 22 April 2019
Temperature: 7.0°C (45°F)
Dewpoint: 4.0°C (39°F) [RH = 81%]
Pressure (altimeter): 30.03 inches Hg (1017.0 mb)
Winds: variable direction winds at 1 MPH (1 knots; 0.5 m/s)
Visibility: 6 or more miles (10+ km)
Ceiling: at least 12,000 feet AGL
Clouds: sky clear below 12,000 feet AGL
Weather: no significant weather observed at this time

METAR text: LOWG 212350Z AUTO 29003KT 240V330 9999 NSC 08/05 Q1017
Conditions at: LOWG (GRAZ (MIL/CIV) , AT) observed 2350 UTC 21 April 2019
Temperature: 8.0°C (46°F)
Dewpoint: 5.0°C (41°F) [RH = 81%]
Pressure (altimeter): 30.03 inches Hg (1017.0 mb)
Winds: from the WNW (290 degrees) at 3 MPH (3 knots; 1.5 m/s)
Visibility: 6 or more miles (10+ km)
Ceiling: at least 12,000 feet AGL
Clouds: sky clear below 12,000 feet AGL
Weather: no significant weather observed at this time

METAR text: LOWG 212320Z AUTO VRB01KT 9999 NSC 09/05 Q1017
Conditions at: LOWG (GRAZ (MIL/CIV) , AT) observed 2320 UTC 21 April 2019
Temperature: 9.0°C (48°F)
Dewpoint: 5.0°C (41°F) [RH = 76%]
Pressure (altimeter): 30.03 inches Hg (1017.0 mb)
Winds: variable direction winds at 1 MPH (1 knots; 0.5 m/s)
Visibility: 6 or more miles (10+ km)
Ceiling: at least 12,000 feet AGL
Clouds: sky clear below 12,000 feet AGL
Weather: no significant weather observed at this time

METAR text: LOWG 212250Z AUTO VRB01KT 9999 NSC 09/04 Q1017
Conditions at: LOWG (GRAZ (MIL/CIV) , AT) observed 2250 UTC 21 April 2019
Temperature: 9.0°C (48°F)
Dewpoint: 4.0°C (39°F) [RH = 71%]
Pressure (altimeter): 30.03 inches Hg (1017.0 mb)
Winds: variable direction winds at 1 MPH (1 knots; 0.5 m/s)
Visibility: 6 or more miles (10+ km)
Ceiling: at least 12,000 feet AGL
Clouds: sky clear below 12,000 feet AGL
Weather: no significant weather observed at this time

METAR text: LOWG 212220Z AUTO VRB02KT 9999 NSC 11/04 Q1018
Conditions at: LOWG (GRAZ (MIL/CIV) , AT) observed 2220 UTC 21 April 2019
Temperature: 11.0°C (52°F)
Dewpoint: 4.0°C (39°F) [RH = 62%]
Pressure (altimeter): 30.06 inches Hg (1018.0 mb)
Winds: variable direction winds at 2 MPH (2 knots; 1.0 m/s)
Visibility: 6 or more miles (10+ km)
Ceiling: at least 12,000 feet AGL
Clouds: sky clear below 12,000 feet AGL
Weather: no significant weather observed at this time

METAR text: LOWG 212150Z AUTO 02003KT 9999 NSC 11/04 Q1018
Conditions at: LOWG (GRAZ (MIL/CIV) , AT) observed 2150 UTC 21 April 2019
Temperature: 11.0°C (52°F)
Dewpoint: 4.0°C (39°F) [RH = 62%]
Pressure (altimeter): 30.06 inches Hg (1018.0 mb)
Winds: from the NNE (20 degrees) at 3 MPH (3 knots; 1.5 m/s)
Visibility: 6 or more miles (10+ km)
Ceiling: at least 12,000 feet AGL
Clouds: sky clear below 12,000 feet AGL
Weather: no significant weather observed at this time

METAR text: LOWG 212120Z 36003KT CAVOK 12/04 Q1018 NOSIG
Conditions at: LOWG (GRAZ (MIL/CIV) , AT) observed 2120 UTC 21 April 2019
Temperature: 12.0°C (54°F)
Dewpoint: 4.0°C (39°F) [RH = 58%]
Pressure (altimeter): 30.06 inches Hg (1018.0 mb)
Winds: from the N (360 degrees) at 3 MPH (3 knots; 1.5 m/s)
Visibility: 6 or more miles (10+ km)
Ceiling: ceiling and visibility are OK
Clouds: unknown
Weather: no significant weather observed at this time

METAR text: LOWG 212050Z 35003KT CAVOK 12/05 Q1018 NOSIG
Conditions at: LOWG (GRAZ (MIL/CIV) , AT) observed 2050 UTC 21 April 2019
Temperature: 12.0°C (54°F)
Dewpoint: 5.0°C (41°F) [RH = 62%]
Pressure (altimeter): 30.06 inches Hg (1018.0 mb)
Winds: from the N (350 degrees) at 3 MPH (3 knots; 1.5 m/s)
Visibility: 6 or more miles (10+ km)
Ceiling: ceiling and visibility are OK
Clouds: unknown
Weather: no significant weather observed at this time

METAR text: LOWG 212020Z 32002KT CAVOK 13/06 Q1018 NOSIG
Conditions at: LOWG (GRAZ (MIL/CIV) , AT) observed 2020 UTC 21 April 2019
Temperature: 13.0°C (55°F)
Dewpoint: 6.0°C (43°F) [RH = 62%]
Pressure (altimeter): 30.06 inches Hg (1018.0 mb)
Winds: from the NW (320 degrees) at 2 MPH (2 knots; 1.0 m/s)
Visibility: 6 or more miles (10+ km)
Ceiling: ceiling and visibility are OK
Clouds: unknown
Weather: no significant weather observed at this time

METAR text: LOWG 211950Z VRB02KT CAVOK 14/04 Q1018 NOSIG
Conditions at: LOWG (GRAZ (MIL/CIV) , AT) observed 1950 UTC 21 April 2019
Temperature: 14.0°C (57°F)
Dewpoint: 4.0°C (39°F) [RH = 51%]
Pressure (altimeter): 30.06 inches Hg (1018.0 mb)
Winds: variable direction winds at 2 MPH (2 knots; 1.0 m/s)
Visibility: 6 or more miles (10+ km)
Ceiling: ceiling and visibility are OK
Clouds: unknown
Weather: no significant weather observed at this time

METAR text: LOWG 211920Z 16002KT CAVOK 15/03 Q1018 NOSIG
Conditions at: LOWG (GRAZ (MIL/CIV) , AT) observed 1920 UTC 21 April 2019
Temperature: 15.0°C (59°F)
Dewpoint: 3.0°C (37°F) [RH = 44%]
Pressure (altimeter): 30.06 inches Hg (1018.0 mb)
Winds: from the SSE (160 degrees) at 2 MPH (2 knots; 1.0 m/s)
Visibility: 6 or more miles (10+ km)
Ceiling: ceiling and visibility are OK
Clouds: unknown
Weather: no significant weather observed at this time

METAR text: LOWG 211850Z 14003KT CAVOK 16/03 Q1018 NOSIG
Conditions at: LOWG (GRAZ (MIL/CIV) , AT) observed 1850 UTC 21 April 2019
Temperature: 16.0°C (61°F)
Dewpoint: 3.0°C (37°F) [RH = 42%]
Pressure (altimeter): 30.06 inches Hg (1018.0 mb)
Winds: from the SE (140 degrees) at 3 MPH (3 knots; 1.5 m/s)
Visibility: 6 or more miles (10+ km)
Ceiling: ceiling and visibility are OK
Clouds: unknown
Weather: no significant weather observed at this time

METAR text: LOWG 211820Z 15005KT 9999 FEW070 16/03 Q1017 NOSIG
Conditions at: LOWG (GRAZ (MIL/CIV) , AT) observed 1820 UTC 21 April 2019
Temperature: 16.0°C (61°F)
Dewpoint: 3.0°C (37°F) [RH = 42%]
Pressure (altimeter): 30.03 inches Hg (1017.0 mb)
Winds: from the SSE (150 degrees) at 6 MPH (5 knots; 2.6 m/s)
Visibility: 6 or more miles (10+ km)
Ceiling: at least 12,000 feet AGL
Clouds: few clouds at 7000 feet AGL
Weather: no significant weather observed at this time

METAR text: LOWG 211750Z 16007KT CAVOK 15/04 Q1017 NOSIG
Conditions at: LOWG (GRAZ (MIL/CIV) , AT) observed 1750 UTC 21 April 2019
Temperature: 15.0°C (59°F)
Dewpoint: 4.0°C (39°F) [RH = 48%]
Pressure (altimeter): 30.03 inches Hg (1017.0 mb)
Winds: from the SSE (160 degrees) at 8 MPH (7 knots; 3.6 m/s)
Visibility: 6 or more miles (10+ km)
Ceiling: ceiling and visibility are OK
Clouds: unknown
Weather: no significant weather observed at this time

METAR text: LOWG 211720Z 16008KT CAVOK 17/04 Q1017 NOSIG
Conditions at: LOWG (GRAZ (MIL/CIV) , AT) observed 1720 UTC 21 April 2019
Temperature: 17.0°C (63°F)
Dewpoint: 4.0°C (39°F) [RH = 42%]
Pressure (altimeter): 30.03 inches Hg (1017.0 mb)
Winds: from the SSE (160 degrees) at 9 MPH (8 knots; 4.1 m/s)
Visibility: 6 or more miles (10+ km)
Ceiling: ceiling and visibility are OK
Clouds: unknown
Weather: no significant weather observed at this time

METAR text: LOWG 211650Z 14008KT CAVOK 19/04 Q1017 NOSIG
Conditions at: LOWG (GRAZ (MIL/CIV) , AT) observed 1650 UTC 21 April 2019
Temperature: 19.0°C (66°F)
Dewpoint: 4.0°C (39°F) [RH = 37%]
Pressure (altimeter): 30.03 inches Hg (1017.0 mb)
Winds: from the SE (140 degrees) at 9 MPH (8 knots; 4.1 m/s)
Visibility: 6 or more miles (10+ km)
Ceiling: ceiling and visibility are OK
Clouds: unknown
Weather: no significant weather observed at this time

METAR text: LOWG 211620Z 16008KT CAVOK 20/05 Q1018 NOSIG
Conditions at: LOWG (GRAZ (MIL/CIV) , AT) observed 1620 UTC 21 April 2019
Temperature: 20.0°C (68°F)
Dewpoint: 5.0°C (41°F) [RH = 37%]
Pressure (altimeter): 30.06 inches Hg (1018.0 mb)
Winds: from the SSE (160 degrees) at 9 MPH (8 knots; 4.1 m/s)
Visibility: 6 or more miles (10+ km)
Ceiling: ceiling and visibility are OK
Clouds: unknown
Weather: no significant weather observed at this time

METAR text: LOWG 211550Z 14006KT CAVOK 21/01 Q1018 NOSIG
Conditions at: LOWG (GRAZ (MIL/CIV) , AT) observed 1550 UTC 21 April 2019
Temperature: 21.0°C (70°F)
Dewpoint: 1.0°C (34°F) [RH = 26%]
Pressure (altimeter): 30.06 inches Hg (1018.0 mb)
Winds: from the SE (140 degrees) at 7 MPH (6 knots; 3.1 m/s)
Visibility: 6 or more miles (10+ km)
Ceiling: ceiling and visibility are OK
Clouds: unknown
Weather: no significant weather observed at this time

METAR text: LOWG 211520Z 18003KT 110V220 CAVOK 21/01 Q1018 NOSIG
Conditions at: LOWG (GRAZ (MIL/CIV) , AT) observed 1520 UTC 21 April 2019
Temperature: 21.0°C (70°F)
Dewpoint: 1.0°C (34°F) [RH = 26%]
Pressure (altimeter): 30.06 inches Hg (1018.0 mb)
Winds: from the S (180 degrees) at 3 MPH (3 knots; 1.5 m/s)
Visibility: 6 or more miles (10+ km)
Ceiling: ceiling and visibility are OK
Clouds: unknown
Weather: no significant weather observed at this time

METAR text: LOWG 211450Z 14005KT 110V180 CAVOK 21/02 Q1018 NOSIG
Conditions at: LOWG (GRAZ (MIL/CIV) , AT) observed 1450 UTC 21 April 2019
Temperature: 21.0°C (70°F)
Dewpoint: 2.0°C (36°F) [RH = 28%]
Pressure (altimeter): 30.06 inches Hg (1018.0 mb)
Winds: from the SE (140 degrees) at 6 MPH (5 knots; 2.6 m/s)
Visibility: 6 or more miles (10+ km)
Ceiling: ceiling and visibility are OK
Clouds: unknown
Weather: no significant weather observed at this time

METAR text: LOWG 211420Z 13005KT 100V180 CAVOK 21/02 Q1018 NOSIG
Conditions at: LOWG (GRAZ (MIL/CIV) , AT) observed 1420 UTC 21 April 2019
Temperature: 21.0°C (70°F)
Dewpoint: 2.0°C (36°F) [RH = 28%]
Pressure (altimeter): 30.06 inches Hg (1018.0 mb)
Winds: from the SE (130 degrees) at 6 MPH (5 knots; 2.6 m/s)
Visibility: 6 or more miles (10+ km)
Ceiling: ceiling and visibility are OK
Clouds: unknown
Weather: no significant weather observed at this time

METAR text: LOWG 211350Z 16005KT 100V260 CAVOK 21/03 Q1019 NOSIG
Conditions at: LOWG (GRAZ (MIL/CIV) , AT) observed 1350 UTC 21 April 2019
Temperature: 21.0°C (70°F)
Dewpoint: 3.0°C (37°F) [RH = 30%]
Pressure (altimeter): 30.09 inches Hg (1019.0 mb)
Winds: from the SSE (160 degrees) at 6 MPH (5 knots; 2.6 m/s)
Visibility: 6 or more miles (10+ km)
Ceiling: ceiling and visibility are OK
Clouds: unknown
Weather: no significant weather observed at this time

METAR text: LOWG 211320Z 17006KT 100V200 CAVOK 21/02 Q1019 NOSIG
Conditions at: LOWG (GRAZ (MIL/CIV) , AT) observed 1320 UTC 21 April 2019
Temperature: 21.0°C (70°F)
Dewpoint: 2.0°C (36°F) [RH = 28%]
Pressure (altimeter): 30.09 inches Hg (1019.0 mb)
Winds: from the S (170 degrees) at 7 MPH (6 knots; 3.1 m/s)
Visibility: 6 or more miles (10+ km)
Ceiling: ceiling and visibility are OK
Clouds: unknown
Weather: no significant weather observed at this time

METAR text: LOWG 211250Z VRB03KT CAVOK 21/02 Q1019 NOSIG
Conditions at: LOWG (GRAZ (MIL/CIV) , AT) observed 1250 UTC 21 April 2019
Temperature: 21.0°C (70°F)
Dewpoint: 2.0°C (36°F) [RH = 28%]
Pressure (altimeter): 30.09 inches Hg (1019.0 mb)
Winds: variable direction winds at 3 MPH (3 knots; 1.5 m/s)
Visibility: 6 or more miles (10+ km)
Ceiling: ceiling and visibility are OK
Clouds: unknown
Weather: no significant weather observed at this time

METAR text: LOWG 211220Z VRB05KT CAVOK 20/01 Q1020 NOSIG
Conditions at: LOWG (GRAZ (MIL/CIV) , AT) observed 1220 UTC 21 April 2019
Temperature: 20.0°C (68°F)
Dewpoint: 1.0°C (34°F) [RH = 28%]
Pressure (altimeter): 30.12 inches Hg (1020.0 mb)
Winds: variable direction winds at 6 MPH (5 knots; 2.6 m/s)
Visibility: 6 or more miles (10+ km)
Ceiling: ceiling and visibility are OK
Clouds: unknown
Weather: no significant weather observed at this time

METAR text: LOWG 211150Z 10005KT 050V160 CAVOK 21/02 Q1020 NOSIG
Conditions at: LOWG (GRAZ (MIL/CIV) , AT) observed 1150 UTC 21 April 2019
Temperature: 21.0°C (70°F)
Dewpoint: 2.0°C (36°F) [RH = 28%]
Pressure (altimeter): 30.12 inches Hg (1020.0 mb)
Winds: from the E (100 degrees) at 6 MPH (5 knots; 2.6 m/s)
Visibility: 6 or more miles (10+ km)
Ceiling: ceiling and visibility are OK
Clouds: unknown
Weather: no significant weather observed at this time

METAR text: LOWG 211120Z 19005KT 140V300 CAVOK 20/01 Q1020 NOSIG
Conditions at: LOWG (GRAZ (MIL/CIV) , AT) observed 1120 UTC 21 April 2019
Temperature: 20.0°C (68°F)
Dewpoint: 1.0°C (34°F) [RH = 28%]
Pressure (altimeter): 30.12 inches Hg (1020.0 mb)
Winds: from the S (190 degrees) at 6 MPH (5 knots; 2.6 m/s)
Visibility: 6 or more miles (10+ km)
Ceiling: ceiling and visibility are OK
Clouds: unknown
Weather: no significant weather observed at this time

METAR text: LOWG 211050Z 13005KT 030V200 CAVOK 20/03 Q1021 NOSIG
Conditions at: LOWG (GRAZ (MIL/CIV) , AT) observed 1050 UTC 21 April 2019
Temperature: 20.0°C (68°F)
Dewpoint: 3.0°C (37°F) [RH = 32%]
Pressure (altimeter): 30.15 inches Hg (1021.0 mb)
Winds: from the SE (130 degrees) at 6 MPH (5 knots; 2.6 m/s)
Visibility: 6 or more miles (10+ km)
Ceiling: ceiling and visibility are OK
Clouds: unknown
Weather: no significant weather observed at this time

METAR text: LOWG 211020Z 15004KT 100V200 CAVOK 19/01 Q1021 NOSIG
Conditions at: LOWG (GRAZ (MIL/CIV) , AT) observed 1020 UTC 21 April 2019
Temperature: 19.0°C (66°F)
Dewpoint: 1.0°C (34°F) [RH = 30%]
Pressure (altimeter): 30.15 inches Hg (1021.0 mb)
Winds: from the SSE (150 degrees) at 5 MPH (4 knots; 2.1 m/s)
Visibility: 6 or more miles (10+ km)
Ceiling: ceiling and visibility are OK
Clouds: unknown
Weather: no significant weather observed at this time

METAR text: LOWG 210950Z 18004KT 140V250 CAVOK 18/01 Q1022 NOSIG
Conditions at: LOWG (GRAZ (MIL/CIV) , AT) observed 0950 UTC 21 April 2019
Temperature: 18.0°C (64°F)
Dewpoint: 1.0°C (34°F) [RH = 32%]
Pressure (altimeter): 30.18 inches Hg (1022.0 mb)
Winds: from the S (180 degrees) at 5 MPH (4 knots; 2.1 m/s)
Visibility: 6 or more miles (10+ km)
Ceiling: ceiling and visibility are OK
Clouds: unknown
Weather: no significant weather observed at this time

METAR text: LOWG 210920Z 13004KT 090V180 9999 FEW070 18/03 Q1022 NOSIG
Conditions at: LOWG (GRAZ (MIL/CIV) , AT) observed 0920 UTC 21 April 2019
Temperature: 18.0°C (64°F)
Dewpoint: 3.0°C (37°F) [RH = 37%]
Pressure (altimeter): 30.18 inches Hg (1022.0 mb)
Winds: from the SE (130 degrees) at 5 MPH (4 knots; 2.1 m/s)
Visibility: 6 or more miles (10+ km)
Ceiling: at least 12,000 feet AGL
Clouds: few clouds at 7000 feet AGL
Weather: no significant weather observed at this time

METAR text: LOWG 210850Z 16003KT 110V230 9999 FEW070 16/02 Q1022 NOSIG
Conditions at: LOWG (GRAZ (MIL/CIV) , AT) observed 0850 UTC 21 April 2019
Temperature: 16.0°C (61°F)
Dewpoint: 2.0°C (36°F) [RH = 39%]
Pressure (altimeter): 30.18 inches Hg (1022.0 mb)
Winds: from the SSE (160 degrees) at 3 MPH (3 knots; 1.5 m/s)
Visibility: 6 or more miles (10+ km)
Ceiling: at least 12,000 feet AGL
Clouds: few clouds at 7000 feet AGL
Weather: no significant weather observed at this time

METAR text: LOWG 210820Z VRB01KT CAVOK 15/03 Q1022 NOSIG
Conditions at: LOWG (GRAZ (MIL/CIV) , AT) observed 0820 UTC 21 April 2019
Temperature: 15.0°C (59°F)
Dewpoint: 3.0°C (37°F) [RH = 44%]
Pressure (altimeter): 30.18 inches Hg (1022.0 mb)
Winds: variable direction winds at 1 MPH (1 knots; 0.5 m/s)
Visibility: 6 or more miles (10+ km)
Ceiling: ceiling and visibility are OK
Clouds: unknown
Weather: no significant weather observed at this time

METAR text: LOWG 210750Z VRB02KT CAVOK 14/04 Q1023 NOSIG
Conditions at: LOWG (GRAZ (MIL/CIV) , AT) observed 0750 UTC 21 April 2019
Temperature: 14.0°C (57°F)
Dewpoint: 4.0°C (39°F) [RH = 51%]
Pressure (altimeter): 30.21 inches Hg (1023.0 mb)
Winds: variable direction winds at 2 MPH (2 knots; 1.0 m/s)
Visibility: 6 or more miles (10+ km)
Ceiling: ceiling and visibility are OK
Clouds: unknown
Weather: no significant weather observed at this time

METAR text: LOWG 210720Z VRB02KT CAVOK 12/03 Q1023 NOSIG
Conditions at: LOWG (GRAZ (MIL/CIV) , AT) observed 0720 UTC 21 April 2019
Temperature: 12.0°C (54°F)
Dewpoint: 3.0°C (37°F) [RH = 54%]
Pressure (altimeter): 30.21 inches Hg (1023.0 mb)
Winds: variable direction winds at 2 MPH (2 knots; 1.0 m/s)
Visibility: 6 or more miles (10+ km)
Ceiling: ceiling and visibility are OK
Clouds: unknown
Weather: no significant weather observed at this time

METAR text: LOWG 210650Z VRB02KT CAVOK 10/04 Q1023 NOSIG
Conditions at: LOWG (GRAZ (MIL/CIV) , AT) observed 0650 UTC 21 April 2019
Temperature: 10.0°C (50°F)
Dewpoint: 4.0°C (39°F) [RH = 66%]
Pressure (altimeter): 30.21 inches Hg (1023.0 mb)
Winds: variable direction winds at 2 MPH (2 knots; 1.0 m/s)
Visibility: 6 or more miles (10+ km)
Ceiling: ceiling and visibility are OK
Clouds: unknown
Weather: no significant weather observed at this time

METAR text: LOWG 210620Z VRB02KT CAVOK 09/03 Q1023 NOSIG
Conditions at: LOWG (GRAZ (MIL/CIV) , AT) observed 0620 UTC 21 April 2019
Temperature: 9.0°C (48°F)
Dewpoint: 3.0°C (37°F) [RH = 66%]
Pressure (altimeter): 30.21 inches Hg (1023.0 mb)
Winds: variable direction winds at 2 MPH (2 knots; 1.0 m/s)
Visibility: 6 or more miles (10+ km)
Ceiling: ceiling and visibility are OK
Clouds: unknown
Weather: no significant weather observed at this time

METAR text: LOWG 210550Z VRB01KT CAVOK 07/03 Q1023 NOSIG
Conditions at: LOWG (GRAZ (MIL/CIV) , AT) observed 0550 UTC 21 April 2019
Temperature: 7.0°C (45°F)
Dewpoint: 3.0°C (37°F) [RH = 76%]
Pressure (altimeter): 30.21 inches Hg (1023.0 mb)
Winds: variable direction winds at 1 MPH (1 knots; 0.5 m/s)
Visibility: 6 or more miles (10+ km)
Ceiling: ceiling and visibility are OK
Clouds: unknown
Weather: no significant weather observed at this time

METAR text: LOWG 210520Z 00000KT CAVOK 05/02 Q1023 NOSIG
Conditions at: LOWG (GRAZ (MIL/CIV) , AT) observed 0520 UTC 21 April 2019
Temperature: 5.0°C (41°F)
Dewpoint: 2.0°C (36°F) [RH = 81%]
Pressure (altimeter): 30.21 inches Hg (1023.0 mb)
Winds: calm
Visibility: 6 or more miles (10+ km)
Ceiling: ceiling and visibility are OK
Clouds: unknown
Weather: no significant weather observed at this time

METAR text: LOWG 210450Z VRB01KT CAVOK 03/01 Q1023 NOSIG
Conditions at: LOWG (GRAZ (MIL/CIV) , AT) observed 0450 UTC 21 April 2019
Temperature: 3.0°C (37°F)
Dewpoint: 1.0°C (34°F) [RH = 87%]
Pressure (altimeter): 30.21 inches Hg (1023.0 mb)
Winds: variable direction winds at 1 MPH (1 knots; 0.5 m/s)
Visibility: 6 or more miles (10+ km)
Ceiling: ceiling and visibility are OK
Clouds: unknown
Weather: no significant weather observed at this time

METAR text: LOWG 210420Z VRB01KT CAVOK 04/02 Q1023 NOSIG
Conditions at: LOWG (GRAZ (MIL/CIV) , AT) observed 0420 UTC 21 April 2019
Temperature: 4.0°C (39°F)
Dewpoint: 2.0°C (36°F) [RH = 87%]
Pressure (altimeter): 30.21 inches Hg (1023.0 mb)
Winds: variable direction winds at 1 MPH (1 knots; 0.5 m/s)
Visibility: 6 or more miles (10+ km)
Ceiling: ceiling and visibility are OK
Clouds: unknown
Weather: no significant weather observed at this time

METAR text: LOWG 210350Z VRB01KT CAVOK 04/01 Q1023 NOSIG
Conditions at: LOWG (GRAZ (MIL/CIV) , AT) observed 0350 UTC 21 April 2019
Temperature: 4.0°C (39°F)
Dewpoint: 1.0°C (34°F) [RH = 81%]
Pressure (altimeter): 30.21 inches Hg (1023.0 mb)
Winds: variable direction winds at 1 MPH (1 knots; 0.5 m/s)
Visibility: 6 or more miles (10+ km)
Ceiling: ceiling and visibility are OK
Clouds: unknown
Weather: no significant weather observed at this time

METAR text: LOWG 210320Z AUTO VRB01KT 9999 FEW190 BKN210 03/01 Q1024
Conditions at: LOWG (GRAZ (MIL/CIV) , AT) observed 0320 UTC 21 April 2019
Temperature: 3.0°C (37°F)
Dewpoint: 1.0°C (34°F) [RH = 87%]
Pressure (altimeter): 30.24 inches Hg (1024.0 mb)
Winds: variable direction winds at 1 MPH (1 knots; 0.5 m/s)
Visibility: 6 or more miles (10+ km)
Ceiling: 21000 feet AGL
Clouds: few clouds at 19000 feet AGL
broken clouds at 21000 feet AGL
Weather: no significant weather observed at this time

METAR text: LOWG 210250Z AUTO VRB01KT 9999 FEW210 04/01 Q1024
Conditions at: LOWG (GRAZ (MIL/CIV) , AT) observed 0250 UTC 21 April 2019
Temperature: 4.0°C (39°F)
Dewpoint: 1.0°C (34°F) [RH = 81%]
Pressure (altimeter): 30.24 inches Hg (1024.0 mb)
Winds: variable direction winds at 1 MPH (1 knots; 0.5 m/s)
Visibility: 6 or more miles (10+ km)
Ceiling: at least 12,000 feet AGL
Clouds: few clouds at 21000 feet AGL
Weather: no significant weather observed at this time

METAR text: LOWG 210220Z AUTO VRB01KT 9999 NSC 05/02 Q1024
Conditions at: LOWG (GRAZ (MIL/CIV) , AT) observed 0220 UTC 21 April 2019
Temperature: 5.0°C (41°F)
Dewpoint: 2.0°C (36°F) [RH = 81%]
Pressure (altimeter): 30.24 inches Hg (1024.0 mb)
Winds: variable direction winds at 1 MPH (1 knots; 0.5 m/s)
Visibility: 6 or more miles (10+ km)
Ceiling: at least 12,000 feet AGL
Clouds: sky clear below 12,000 feet AGL
Weather: no significant weather observed at this time

Forecast for: LOWG (GRAZ (MIL/CIV) , AT)
Text: TAF LOWG 221115Z 2212/2312 12005KT CAVOK TX23/2214Z TN09/2304Z
Forecast period: 1200 UTC 22 April 2019 to 0400 UTC 23 April 2019
Forecast type: FROM: standard forecast or significant change
Winds: from the ESE (120 degrees) at 6 MPH (5 knots; 2.6 m/s)
Visibility: 6 or more miles 10+ km)
Ceiling: unknown
Clouds: missing
Weather: no significant weather forecast for this period
Text: TEMPO 2212/2218 17010KT 9999 FEW060 BKN300
Forecast period: 1200 to 1800 UTC 22 April 2019
Forecast type: TEMPORARY: The following changes expected for less than half the time period
Winds: from the S (170 degrees) at 12 MPH (10 knots; 5.1 m/s)
Visibility: 6 or more miles 10+ km)
Ceiling: 30000 feet AGL
Clouds: few clouds at 6000 feet AGL
broken clouds at 30000 feet AGL
Weather: no significant weather forecast for this period
Text: BECMG 2304/2306 9999 BKN060
Forecast period: 0400 to 0700 UTC 23 April 2019
Forecast type: BECOMING: Conditions expected to become as follows by 0600 UTC 23 April 2019
Winds: from the ESE (120 degrees) at 6 MPH (5 knots; 2.6 m/s)
Visibility: 6 or more miles 10+ km)
Ceiling: 6000 feet AGL
Clouds: broken clouds at 6000 feet AGL
Weather: no significant weather forecast for this period
Text: BECMG 2307/2309 -RA BKN035
Forecast period: 0700 to 1200 UTC 23 April 2019
Forecast type: BECOMING: Conditions expected to become as follows by 0900 UTC 23 April 2019
Winds: from the ESE (120 degrees) at 6 MPH (5 knots; 2.6 m/s)
Visibility: 6 or more miles 10+ km)
Ceiling: 3500 feet AGL
Clouds: broken clouds at 3500 feet AGL
Weather: -RA  (light rain)
Text: TEMPO 2309/2312 4000 RA BR BKN020
Forecast period: 0900 to 1200 UTC 23 April 2019
Forecast type: TEMPORARY: The following changes expected for less than half the time period
Visibility: 2.49 miles (4.01 km)
Ceiling: 2000 feet AGL
Clouds: broken clouds at 2000 feet AGL
Weather: RA BR  (moderate rain, mist)